createdAt,value
2023-02-26T00:02:50.383Z,-0.522461
2023-02-26T00:06:15.594Z,-0.653381
2023-02-26T00:09:40.838Z,-0.723877
2023-02-26T00:13:06.200Z,-0.864868
2023-02-26T00:16:31.476Z,-0.854797
2023-02-26T00:19:56.631Z,-1.146851
2023-02-26T00:23:21.884Z,-1.328125
2023-02-26T00:26:47.174Z,-1.328125
2023-02-26T00:30:12.449Z,-1.247559
2023-02-26T00:33:37.698Z,-1.428833
2023-02-26T00:37:02.967Z,-1.559753
2023-02-26T00:40:28.217Z,-1.801453
2023-02-26T00:43:53.487Z,-1.741028
2023-02-26T00:47:18.801Z,-1.610107
2023-02-26T00:50:44.023Z,-1.559753
2023-02-26T00:54:09.315Z,-1.791382
2023-02-26T00:57:34.577Z,-1.670532
2023-02-26T01:00:59.814Z,-1.589966
2023-02-26T01:04:25.115Z,-1.700745
2023-02-26T01:07:50.374Z,-1.660461
2023-02-26T01:11:15.625Z,-1.549683
2023-02-26T01:14:40.886Z,-1.338196
2023-02-26T01:18:06.653Z,-1.408691
2023-02-26T01:21:31.451Z,-1.328125
2023-02-26T01:24:56.688Z,-1.247559
2023-02-26T01:28:21.938Z,-1.227417
2023-02-26T01:31:47.385Z,-1.146851
2023-02-26T01:35:12.526Z,-1.166992
2023-02-26T01:38:37.790Z,-1.217346
2023-02-26T01:42:03.030Z,-1.096497
2023-02-26T01:45:28.309Z,-1.086426
2023-02-26T01:48:53.581Z,-1.116638
2023-02-26T01:52:18.818Z,-1.096497
2023-02-26T01:55:44.091Z,-1.086426
2023-02-26T01:59:09.342Z,-0.985718
2023-02-26T02:02:34.840Z,-1.096497
2023-02-26T02:05:59.842Z,-0.985718
2023-02-26T02:09:25.120Z,-0.985718
2023-02-26T02:12:50.406Z,-1.086426
2023-02-26T02:16:15.682Z,-0.985718
2023-02-26T02:19:40.906Z,-0.985718
2023-02-26T02:23:06.171Z,-1.005859
2023-02-26T02:26:31.423Z,-1.036072
2023-02-26T02:29:56.708Z,-1.046143
2023-02-26T02:33:21.950Z,-1.146851
2023-02-26T02:36:47.219Z,-1.156921
2023-02-26T02:40:12.458Z,-1.156921
2023-02-26T02:43:37.735Z,-1.197205
2023-02-26T02:47:03.062Z,-1.277771
2023-02-26T02:50:28.265Z,-1.307983
2023-02-26T02:53:53.528Z,-1.217346
2023-02-26T02:57:18.782Z,-1.187134
2023-02-26T03:00:44.075Z,-1.066284
2023-02-26T03:04:09.330Z,-1.046143
2023-02-26T03:07:34.578Z,-1.036072
2023-02-26T03:10:59.832Z,-1.005859
2023-02-26T03:14:25.095Z,-1.146851
2023-02-26T03:17:50.393Z,-1.2677
2023-02-26T03:21:15.676Z,-1.2677
2023-02-26T03:24:40.911Z,-1.2677
2023-02-26T03:28:06.192Z,-1.197205
2023-02-26T03:31:31.444Z,-1.277771
2023-02-26T03:34:56.715Z,-1.307983
2023-02-26T03:38:22.066Z,-1.2677
2023-02-26T03:41:47.358Z,-1.338196
2023-02-26T03:45:12.645Z,-1.539612
2023-02-26T03:48:38.020Z,-1.509399
2023-02-26T03:52:03.168Z,-1.479187
2023-02-26T03:55:28.470Z,-1.408691
2023-02-26T03:58:53.719Z,-1.509399
2023-02-26T04:02:19.002Z,-1.559753
2023-02-26T04:05:44.256Z,-1.509399
2023-02-26T04:09:09.569Z,-1.479187
2023-02-26T04:12:34.857Z,-1.539612
2023-02-26T04:16:00.126Z,-1.690674
2023-02-26T04:19:25.368Z,-1.761169
2023-02-26T04:22:50.756Z,-1.741028
2023-02-26T04:26:16.042Z,-1.690674
2023-02-26T04:29:41.330Z,-1.610107
2023-02-26T04:33:06.610Z,-1.589966
2023-02-26T04:36:31.864Z,-1.690674
2023-02-26T04:39:57.122Z,-1.841736
2023-02-26T04:43:22.373Z,-1.982727
2023-02-26T04:46:47.701Z,-1.952515
2023-02-26T04:50:12.996Z,-1.801453
2023-02-26T04:53:38.210Z,-1.791382
2023-02-26T04:57:03.434Z,-1.77124
2023-02-26T05:00:28.623Z,-1.972656
2023-02-26T05:03:53.851Z,-1.982727
2023-02-26T05:07:19.052Z,-1.912231
2023-02-26T05:10:44.298Z,-2.002869
2023-02-26T05:14:09.539Z,-2.02301
2023-02-26T05:17:34.743Z,-1.972656
2023-02-26T05:20:59.994Z,-2.365417
2023-02-26T05:24:25.177Z,-2.27478
2023-02-26T05:27:50.386Z,-2.27478
2023-02-26T05:31:15.675Z,-2.244568
2023-02-26T05:34:40.810Z,-2.244568
2023-02-26T05:38:06.023Z,-2.153931
2023-02-26T05:41:31.213Z,-2.184143
2023-02-26T05:44:56.412Z,-2.345276
2023-02-26T05:48:21.635Z,-2.294922
2023-02-26T05:51:46.843Z,-2.415771
2023-02-26T05:55:12.063Z,-2.27478
2023-02-26T05:58:37.241Z,-2.345276
2023-02-26T06:02:02.502Z,-2.425842
2023-02-26T06:05:27.628Z,-2.496338
2023-02-26T06:08:52.822Z,-2.486267
2023-02-26T06:12:18.072Z,-2.576904
2023-02-26T06:15:43.252Z,-2.425842
2023-02-26T06:19:08.454Z,-2.425842
2023-02-26T06:22:33.678Z,-2.335205
2023-02-26T06:25:58.882Z,-2.345276
2023-02-26T06:29:24.132Z,-2.39563
2023-02-26T06:32:49.436Z,-2.315063
2023-02-26T06:36:14.679Z,-2.244568
2023-02-26T06:39:39.918Z,-2.093506
2023-02-26T06:43:05.192Z,-2.153931
2023-02-26T06:46:30.498Z,-2.093506
2023-02-26T06:49:55.721Z,-2.304993
2023-02-26T06:53:21.047Z,-2.415771
2023-02-26T06:56:46.320Z,-2.204285
2023-02-26T07:00:11.677Z,-2.083435
2023-02-26T07:03:36.908Z,-2.164001
2023-02-26T07:07:02.301Z,-1.982727
2023-02-26T07:10:27.553Z,-1.912231
2023-02-26T07:13:52.761Z,-1.952515
2023-02-26T07:17:17.976Z,-2.153931
2023-02-26T07:20:43.234Z,-2.244568
2023-02-26T07:24:08.412Z,-2.164001
2023-02-26T07:27:33.633Z,-1.942444
2023-02-26T07:30:58.953Z,-1.791382
2023-02-26T07:34:24.078Z,-1.841736
2023-02-26T07:37:49.323Z,-1.700745
2023-02-26T07:41:14.553Z,-1.720886
2023-02-26T07:44:40.203Z,-1.791382
2023-02-26T07:48:05.389Z,-2.02301
2023-02-26T07:51:32.489Z,-1.942444
2023-02-26T07:54:56.171Z,-1.77124
2023-02-26T07:58:21.406Z,-1.670532
2023-02-26T08:01:46.727Z,-1.821594
2023-02-26T08:05:11.871Z,-1.64032
2023-02-26T08:08:37.057Z,-1.368408
2023-02-26T08:12:02.332Z,-1.227417
2023-02-26T08:15:27.533Z,-1.187134
2023-02-26T08:18:52.739Z,-1.086426
2023-02-26T08:22:17.986Z,-1.086426
2023-02-26T08:25:43.227Z,-1.348267
2023-02-26T08:29:08.490Z,-1.579895
2023-02-26T08:32:33.720Z,-1.851807
2023-02-26T08:35:58.922Z,-1.871948
2023-02-26T08:39:24.098Z,-1.720886
2023-02-26T08:42:49.355Z,-1.821594
2023-02-26T08:46:14.596Z,-1.720886
2023-02-26T08:49:39.734Z,-1.610107
2023-02-26T08:53:04.953Z,-1.428833
2023-02-26T08:56:30.155Z,-1.297913
2023-02-26T08:59:55.365Z,-1.277771
2023-02-26T09:03:20.593Z,-1.297913
2023-02-26T09:06:45.789Z,-1.338196
2023-02-26T09:10:10.976Z,-1.297913
2023-02-26T09:13:36.295Z,-1.197205
2023-02-26T09:17:01.409Z,-1.086426
2023-02-26T09:20:26.645Z,-0.945435
2023-02-26T09:23:51.838Z,-0.864868
2023-02-26T09:27:17.027Z,-0.935364
2023-02-26T09:30:42.261Z,-1.197205
2023-02-26T09:34:08.807Z,-1.2677
2023-02-26T09:37:32.718Z,-1.126709
2023-02-26T09:40:57.927Z,-1.066284
2023-02-26T09:44:23.148Z,-1.197205
2023-02-26T09:47:48.424Z,-1.378479
2023-02-26T09:51:13.704Z,-1.509399
2023-02-26T09:54:38.968Z,-1.459045
2023-02-26T09:58:04.165Z,-1.489258
2023-02-26T10:01:29.381Z,-1.398621
2023-02-26T10:04:54.575Z,-1.247559
2023-02-26T10:08:19.847Z,-1.197205
2023-02-26T10:11:45.096Z,-1.247559
2023-02-26T10:15:10.278Z,-1.116638
2023-02-26T10:18:35.532Z,-0.864868
2023-02-26T10:22:00.754Z,-0.76416
2023-02-26T10:25:25.976Z,-0.784302
2023-02-26T10:28:51.226Z,-0.733948
2023-02-26T10:32:16.577Z,-0.582886
2023-02-26T10:35:41.628Z,-0.431824
2023-02-26T10:39:06.854Z,-0.180054
2023-02-26T10:42:32.049Z,-0.190125
2023-02-26T10:45:57.391Z,-0.230408
2023-02-26T10:49:22.484Z,-0.51239
2023-02-26T10:52:47.682Z,-0.492249
2023-02-26T10:56:12.885Z,-0.492249
2023-02-26T10:59:38.090Z,-0.431824
2023-02-26T11:03:03.423Z,-0.149841
2023-02-26T11:06:28.634Z,-0.049133
2023-02-26T11:09:53.874Z,-0.180054
2023-02-26T11:13:19.098Z,-0.099487
2023-02-26T11:16:44.354Z,-0.210266
2023-02-26T11:20:10.459Z,-0.099487
2023-02-26T11:23:36.224Z,0.021362
2023-02-26T11:27:01.452Z,-0.280762
2023-02-26T11:30:26.684Z,0.041504
2023-02-26T11:33:51.914Z,0.283203
2023-02-26T11:37:17.138Z,0.675964
2023-02-26T11:40:42.349Z,0.49469
2023-02-26T11:44:07.623Z,0.534973
2023-02-26T11:47:32.828Z,0.424194
2023-02-26T11:50:58.031Z,0.686035
2023-02-26T11:54:23.292Z,0.756531
2023-02-26T11:57:48.457Z,0.87738
2023-02-26T12:01:13.652Z,0.907593
2023-02-26T12:04:38.917Z,0.645752
2023-02-26T12:08:04.121Z,0.545044
2023-02-26T12:11:29.752Z,0.49469
2023-02-26T12:14:54.543Z,0.61554
2023-02-26T12:18:19.805Z,0.686035
2023-02-26T12:21:45.034Z,0.796814
2023-02-26T12:25:10.258Z,0.786743
2023-02-26T12:28:35.471Z,0.87738
2023-02-26T12:32:00.842Z,0.907593
2023-02-26T12:35:25.966Z,0.968018
2023-02-26T12:38:51.169Z,0.99823
2023-02-26T12:42:16.368Z,0.99823
2023-02-26T12:45:42.069Z,1.11908
2023-02-26T12:49:06.818Z,1.270142
2023-02-26T12:52:32.035Z,1.078796
2023-02-26T12:55:57.227Z,0.87738
2023-02-26T12:59:22.426Z,0.686035
2023-02-26T13:02:47.653Z,0.36377
2023-02-26T13:06:12.808Z,0.565186
2023-02-26T13:09:37.980Z,0.595398
2023-02-26T13:13:03.169Z,0.444336
2023-02-26T13:16:28.375Z,0.323486
2023-02-26T13:19:53.513Z,0.393982
2023-02-26T13:23:18.669Z,0.49469
2023-02-26T13:26:43.844Z,0.61554
2023-02-26T13:30:09.041Z,0.726318
2023-02-26T13:33:34.238Z,0.49469
2023-02-26T13:36:59.450Z,0.444336
2023-02-26T13:40:24.645Z,0.353699
2023-02-26T13:43:49.819Z,0.283203
2023-02-26T13:47:16.957Z,0.323486
2023-02-26T13:50:40.227Z,0.293274
2023-02-26T13:54:05.455Z,0.323486
2023-02-26T13:57:30.615Z,0.313416
2023-02-26T14:00:55.832Z,0.333557
2023-02-26T14:04:21.064Z,0.24292
2023-02-26T14:07:46.223Z,0.263062
2023-02-26T14:11:11.495Z,0.323486
2023-02-26T14:14:36.656Z,0.313416
2023-02-26T14:18:01.839Z,0.414124
2023-02-26T14:21:27.434Z,0.424194
2023-02-26T14:24:52.161Z,0.383911
2023-02-26T14:28:17.388Z,0.474548
2023-02-26T15:04:43.385Z,0.182495
2023-02-26T15:08:08.555Z,0.132141
2023-02-26T15:11:33.770Z,0.101929
2023-02-26T15:14:58.980Z,0.071716
2023-02-26T15:18:24.188Z,0.081787
2023-02-26T15:21:49.430Z,0.001221
2023-02-26T15:25:14.636Z,-0.159912
2023-02-26T15:28:39.858Z,-0.149841
2023-02-26T15:32:05.213Z,-0.310974
2023-02-26T15:35:30.246Z,-0.210266
2023-02-26T15:38:55.482Z,0.041504
2023-02-26T15:42:21.166Z,0.081787
2023-02-26T15:45:46.397Z,0.142212
2023-02-26T15:49:11.738Z,-0.069275
2023-02-26T15:52:37.695Z,-0.361328
2023-02-26T15:56:03.396Z,-0.371399
2023-02-26T15:59:28.766Z,-0.462036
2023-02-26T16:02:54.186Z,-0.653381
2023-02-26T16:06:19.408Z,-0.88501
2023-02-26T16:09:44.866Z,-0.88501
2023-02-26T16:13:10.374Z,-0.733948
2023-02-26T16:16:35.721Z,-0.693665
2023-02-26T16:20:01.136Z,-0.693665
2023-02-26T16:23:26.528Z,-0.754089
2023-02-26T16:26:51.950Z,-0.76416
2023-02-26T16:30:17.345Z,-0.76416
2023-02-26T16:33:42.756Z,-1.01593
2023-02-26T16:37:08.187Z,-0.975647
2023-02-26T16:40:33.593Z,-1.116638
2023-02-26T16:43:59.013Z,-1.066284
2023-02-26T16:47:25.582Z,-1.01593
2023-02-26T16:50:49.867Z,-1.01593
2023-02-26T16:54:15.822Z,-1.046143
2023-02-26T16:57:41.216Z,-0.975647
2023-02-26T17:01:06.685Z,-0.905151
2023-02-26T17:04:32.062Z,-0.945435
2023-02-26T17:07:57.531Z,-1.01593
2023-02-26T17:11:22.950Z,-1.046143
2023-02-26T17:14:48.631Z,-1.156921
2023-02-26T17:18:13.936Z,-1.086426
2023-02-26T17:21:39.411Z,-1.086426
2023-02-26T17:25:04.800Z,-0.985718
2023-02-26T17:28:30.249Z,-1.036072
2023-02-26T17:31:55.709Z,-1.156921
2023-02-26T17:35:21.001Z,-1.126709
2023-02-26T17:38:46.455Z,-1.247559
2023-02-26T17:42:11.846Z,-1.338196
2023-02-26T17:45:37.256Z,-1.348267
2023-02-26T17:49:02.706Z,-1.187134
2023-02-26T17:52:28.136Z,-1.01593
2023-02-26T17:55:53.638Z,-1.086426
2023-02-26T17:59:19.129Z,-1.096497
2023-02-26T18:02:44.608Z,-1.096497
2023-02-26T18:06:10.127Z,-1.116638
2023-02-26T18:09:35.479Z,-1.01593
2023-02-26T18:13:00.774Z,-1.247559
2023-02-26T18:16:26.079Z,-1.378479
2023-02-26T18:19:51.371Z,-1.348267
2023-02-26T18:23:16.800Z,-1.307983
2023-02-26T18:26:42.060Z,-1.408691
2023-02-26T18:30:07.492Z,-1.398621
2023-02-26T18:33:32.830Z,-1.348267
2023-02-26T18:36:58.214Z,-1.197205
2023-02-26T18:40:23.648Z,-1.297913
2023-02-26T18:43:49.016Z,-1.247559
2023-02-26T18:47:14.367Z,-1.166992
2023-02-26T18:50:39.660Z,-1.126709
2023-02-26T18:54:05.034Z,-1.247559
2023-02-26T18:57:30.344Z,-1.277771
2023-02-26T19:00:55.636Z,-1.368408
2023-02-26T19:04:20.966Z,-1.227417
2023-02-26T19:07:46.339Z,-1.2677
2023-02-26T19:11:11.650Z,-1.277771
2023-02-26T19:14:36.985Z,-1.307983
2023-02-26T19:18:02.315Z,-1.2677
2023-02-26T19:21:27.898Z,-1.187134
2023-02-26T19:24:52.992Z,-1.227417
2023-02-26T19:28:18.490Z,-1.247559
2023-02-26T19:31:44.280Z,-1.146851
2023-02-26T19:35:09.604Z,-1.217346
2023-02-26T19:38:35.113Z,-1.126709
2023-02-26T19:42:00.560Z,-1.046143
2023-02-26T19:45:26.041Z,-1.096497
2023-02-26T19:48:51.590Z,-1.036072
2023-02-26T19:52:17.079Z,-1.086426
2023-02-26T19:55:42.526Z,-1.247559
2023-02-26T19:59:07.992Z,-1.2677
2023-02-26T20:02:33.453Z,-1.116638
2023-02-26T20:05:58.945Z,-1.338196
2023-02-26T20:09:24.365Z,-1.368408
2023-02-26T20:12:49.842Z,-1.297913
2023-02-26T20:16:15.366Z,-1.348267
2023-02-26T20:19:40.712Z,-1.297913
2023-02-26T20:23:06.257Z,-1.2677
2023-02-26T20:26:32.382Z,-1.046143
2023-02-26T20:29:57.943Z,-1.046143
2023-02-26T20:33:23.504Z,-1.247559
2023-02-26T20:36:48.975Z,-1.197205
2023-02-26T20:40:14.490Z,-1.116638
2023-02-26T20:43:39.983Z,-1.046143
2023-02-26T20:47:05.484Z,-0.985718
2023-02-26T20:50:30.987Z,-1.126709
2023-02-26T20:53:56.481Z,-1.2677
2023-02-26T20:57:21.985Z,-1.428833
2023-02-26T21:00:47.603Z,-1.549683
2023-02-26T21:04:13.002Z,-1.348267
2023-02-26T21:07:38.485Z,-1.297913
2023-02-26T21:11:03.923Z,-1.489258
2023-02-26T21:14:29.402Z,-1.51947
2023-02-26T21:17:54.672Z,-1.408691
2023-02-26T21:21:19.841Z,-1.247559
2023-02-26T21:24:44.987Z,-1.166992
2023-02-26T21:28:10.145Z,-1.2677
2023-02-26T21:31:35.316Z,-1.197205
2023-02-26T21:35:00.461Z,-1.307983
2023-02-26T21:38:25.685Z,-1.2677
2023-02-26T21:41:50.780Z,-1.2677
2023-02-26T21:45:15.948Z,-1.408691
2023-02-26T21:48:41.127Z,-1.348267
2023-02-26T21:52:06.302Z,-1.227417
2023-02-26T21:55:31.463Z,-1.348267
2023-02-26T21:58:56.598Z,-1.51947
2023-02-26T22:02:21.811Z,-1.51947
2023-02-26T22:05:46.916Z,-1.509399
2023-02-26T22:09:12.062Z,-1.368408
2023-02-26T22:12:37.255Z,-1.448975
2023-02-26T22:16:02.384Z,-1.549683
2023-02-26T22:19:27.553Z,-1.579895
2023-02-26T22:22:52.746Z,-1.620178
2023-02-26T22:26:17.880Z,-1.670532
2023-02-26T22:29:43.067Z,-1.539612
2023-02-26T22:33:08.209Z,-1.479187
2023-02-26T22:36:33.360Z,-1.509399
2023-02-26T22:39:58.598Z,-1.539612
2023-02-26T22:43:23.747Z,-1.64032
2023-02-26T22:46:48.931Z,-1.791382
2023-02-26T22:50:14.051Z,-1.821594
2023-02-26T22:53:39.213Z,-1.821594
2023-02-26T22:57:04.370Z,-1.871948
2023-02-26T23:00:29.536Z,-1.942444
2023-02-26T23:03:54.737Z,-2.083435
2023-02-26T23:07:19.863Z,-2.164001
2023-02-26T23:10:45.031Z,-2.264709
2023-02-26T23:14:10.221Z,-2.315063
2023-02-26T23:17:37.707Z,-2.27478
2023-02-26T23:21:02.900Z,-2.27478
2023-02-26T23:24:28.037Z,-2.345276
2023-02-26T23:27:53.221Z,-2.335205
2023-02-26T23:31:18.531Z,-2.345276
2023-02-26T23:34:43.562Z,-2.39563
2023-02-26T23:38:08.754Z,-2.425842
2023-02-26T23:41:33.887Z,-2.476196
2023-02-26T23:44:59.048Z,-2.486267
2023-02-26T23:48:24.195Z,-2.516479
2023-02-26T23:51:49.353Z,-2.445984
2023-02-26T23:55:14.523Z,-2.496338
2023-02-26T23:58:39.681Z,-2.657471
